Time;durP1;ratioP1;P1;durP2;ratioP2;P2;SDS_P1;SDS_P2;PMS_P1;PMS_P2;Temp;Humidity;BMP_temperature;BMP_pressure;BME280_temperature;BME280_humidity;BME280_pressure;Samples;Min_cycle;Max_cycle;Signal;HPM_P1;HPM_P2
2022/03/01 00:00:39;;;;;;;15.73;7.13;;;5.20;60.90;;;;;;5053889;28;20461;-77
2022/03/01 00:03:06;;;;;;;14.73;8.30;;;5.20;60.60;;;;;;5053841;28;20025;-77
2022/03/01 00:05:32;;;;;;;18.00;8.13;;;5.20;60.70;;;;;;5053689;28;20036;-79
2022/03/01 00:07:57;;;;;;;17.83;8.77;;;5.10;60.80;;;;;;5053480;28;20067;-77
2022/03/01 00:10:23;;;;;;;17.47;8.37;;;5.10;60.90;;;;;;5053538;28;20060;-77
2022/03/01 00:12:49;;;;;;;17.73;8.97;;;5.10;61.10;;;;;;5037093;28;20457;-78
2022/03/01 00:15:15;;;;;;;18.07;8.83;;;5.00;61.30;;;;;;5036630;28;20029;-78
2022/03/01 00:17:40;;;;;;;15.80;7.90;;;5.00;62.60;;;;;;5036760;28;20036;-78
2022/03/01 00:20:07;;;;;;;18.13;8.53;;;4.90;62.00;;;;;;5036920;28;20064;-78
2022/03/01 00:22:33;;;;;;;19.27;9.13;;;4.90;62.30;;;;;;5036788;28;20029;-78
2022/03/01 00:25:00;;;;;;;18.97;9.07;;;4.80;63.00;;;;;;5036863;28;20461;-78
2022/03/01 00:27:25;;;;;;;19.93;8.87;;;4.80;63.40;;;;;;5053436;28;20117;-77
2022/03/01 00:29:51;;;;;;;19.07;10.20;;;4.70;62.90;;;;;;5036605;28;20120;-78
2022/03/01 00:32:17;;;;;;;19.70;9.17;;;4.70;62.90;;;;;;5036963;28;20029;-78
2022/03/01 00:34:43;;;;;;;18.07;9.37;;;4.60;63.00;;;;;;5036745;28;20093;-78
2022/03/01 00:37:09;;;;;;;17.47;8.30;;;4.60;63.00;;;;;;5054209;28;20039;-77
2022/03/01 00:39:35;;;;;;;18.63;9.10;;;4.70;63.10;;;;;;5053101;28;20118;-77
2022/03/01 00:42:01;;;;;;;17.87;9.43;;;4.60;63.20;;;;;;5036501;28;20025;-79
2022/03/01 00:44:27;;;;;;;17.57;8.93;;;4.50;63.30;;;;;;5019834;28;20039;-77
2022/03/01 00:46:53;;;;;;;15.93;7.87;;;4.50;63.40;;;;;;5019879;28;20033;-78
2022/03/01 00:49:18;;;;;;;18.37;8.53;;;4.50;63.70;;;;;;5054213;28;20029;-78
2022/03/01 00:51:44;;;;;;;16.87;9.13;;;4.40;63.60;;;;;;5052882;28;20116;-77
2022/03/01 00:54:10;;;;;;;17.23;8.67;;;4.40;63.70;;;;;;5019745;28;20543;-77
2022/03/01 00:56:36;;;;;;;19.23;8.23;;;4.30;63.70;;;;;;5052621;28;20033;-78
2022/03/01 00:59:01;;;;;;;19.53;9.17;;;4.30;63.80;;;;;;5036035;28;20040;-78
2022/03/01 01:01:27;;;;;;;18.13;9.10;;;4.30;64.00;;;;;;5035993;28;20090;-78
2022/03/01 01:03:53;;;;;;;19.87;9.00;;;4.20;64.00;;;;;;5052853;28;20374;-77
2022/03/01 01:06:19;;;;;;;16.73;8.20;;;4.30;64.10;;;;;;5052500;28;20435;-77
2022/03/01 01:08:45;;;;;;;18.33;9.17;;;4.30;64.20;;;;;;5052563;28;20111;-78
2022/03/01 01:11:11;;;;;;;17.17;8.40;;;4.30;64.00;;;;;;5052460;28;20116;-78
2022/03/01 01:13:36;;;;;;;17.87;9.00;;;4.20;64.00;;;;;;5019387;28;20032;-78
2022/03/01 01:16:02;;;;;;;19.93;8.77;;;4.30;64.50;;;;;;5035800;28;20032;-78
2022/03/01 01:18:28;;;;;;;19.97;9.77;;;4.30;64.50;;;;;;5052199;28;20060;-77
2022/03/01 01:20:54;;;;;;;25.57;9.57;;;4.30;64.50;;;;;;5052234;28;20036;-77
2022/03/01 01:23:20;;;;;;;19.10;9.33;;;4.20;64.40;;;;;;5035697;28;20049;-78
2022/03/01 01:25:45;;;;;;;15.37;8.47;;;4.20;64.40;;;;;;5035072;28;20065;-77
2022/03/01 01:28:12;;;;;;;19.23;10.00;;;4.20;64.50;;;;;;5052254;28;20094;-78
2022/03/01 01:30:38;;;;;;;18.60;8.87;;;4.20;64.70;;;;;;5053547;28;20036;-78
2022/03/01 01:33:03;;;;;;;16.00;8.37;;;4.20;65.10;;;;;;5036072;28;20123;-77
2022/03/01 01:35:31;;;;;;;21.00;9.13;;;4.00;65.00;;;;;;5052342;28;20155;-77
2022/03/01 01:37:58;;;;;;;17.43;9.33;;;4.10;65.30;;;;;;5035540;28;20028;-77
2022/03/01 01:40:27;;;;;;;15.00;8.27;;;4.00;65.30;;;;;;5035564;28;20080;-77
2022/03/01 01:42:53;;;;;;;17.23;8.67;;;4.00;65.40;;;;;;5052039;28;20025;-78
2022/03/01 01:45:20;;;;;;;18.70;9.50;;;4.00;65.60;;;;;;5035486;28;20075;-77
2022/03/01 01:47:47;;;;;;;17.77;9.30;;;4.00;65.70;;;;;;5052099;28;20052;-78
2022/03/01 01:50:13;;;;;;;17.20;8.33;;;4.00;65.80;;;;;;5035330;28;20083;-77
2022/03/01 01:52:39;;;;;;;16.70;8.80;;;3.90;65.90;;;;;;5051989;28;20369;-78
2022/03/01 01:55:05;;;;;;;16.70;8.93;;;3.90;65.80;;;;;;5035725;28;20033;-78
2022/03/01 01:57:31;;;;;;;19.50;9.20;;;3.90;65.80;;;;;;5051825;28;20036;-78
2022/03/01 01:59:57;;;;;;;17.73;8.47;;;3.80;65.90;;;;;;5051890;28;20428;-77
2022/03/01 02:02:24;;;;;;;19.97;9.50;;;3.80;65.90;;;;;;5053168;28;20021;-77
2022/03/01 02:04:50;;;;;;;20.13;10.10;;;3.70;66.00;;;;;;5051841;28;20478;-78
2022/03/01 02:07:16;;;;;;;18.80;9.30;;;3.80;66.20;;;;;;5035344;28;20106;-77
2022/03/01 02:09:42;;;;;;;21.73;9.23;;;3.70;66.40;;;;;;5053271;28;20029;-78
2022/03/01 02:12:08;;;;;;;17.13;8.77;;;3.70;66.60;;;;;;5051845;28;20032;-77
2022/03/01 02:14:37;;;;;;;18.47;9.27;;;3.70;66.80;;;;;;5018774;28;20040;-77
2022/03/01 02:17:06;;;;;;;19.23;9.37;;;3.70;67.30;;;;;;5051534;28;20040;-77
2022/03/01 02:19:32;;;;;;;17.83;9.27;;;3.70;67.20;;;;;;5051647;28;20031;-77
2022/03/01 02:21:58;;;;;;;18.33;9.80;;;3.70;67.30;;;;;;5035104;28;20036;-77
2022/03/01 02:24:27;;;;;;;18.97;9.63;;;3.70;67.40;;;;;;5052348;28;20025;-77
2022/03/01 02:26:58;;;;;;;17.40;8.80;;;3.80;67.70;;;;;;5051531;28;20025;-77
2022/03/01 02:29:24;;;;;;;19.07;9.63;;;3.70;67.80;;;;;;5051541;28;20025;-77
2022/03/01 02:31:51;;;;;;;17.53;8.80;;;3.70;67.90;;;;;;5051590;28;20056;-77
2022/03/01 02:34:18;;;;;;;18.40;9.90;;;3.70;68.00;;;;;;5019042;28;20538;-77
2022/03/01 02:36:44;;;;;;;17.20;8.70;;;3.60;68.10;;;;;;5052234;28;20017;-77
2022/03/01 02:39:10;;;;;;;16.93;8.63;;;3.70;68.80;;;;;;5055120;28;20032;-77
2022/03/01 02:41:41;;;;;;;19.37;9.30;;;3.70;68.30;;;;;;5038735;28;20029;-77
2022/03/01 02:44:07;;;;;;;15.17;8.13;;;3.70;68.50;;;;;;5038916;28;20029;-77
2022/03/01 02:46:34;;;;;;;17.50;8.93;;;3.60;68.50;;;;;;5038880;28;20052;-78
2022/03/01 02:49:00;;;;;;;17.17;8.00;;;3.60;68.60;;;;;;5055212;28;20473;-78
2022/03/01 02:51:26;;;;;;;19.43;9.63;;;3.70;68.80;;;;;;5055171;28;20112;-78
2022/03/01 02:53:52;;;;;;;17.37;8.77;;;3.70;68.90;;;;;;5055203;28;20163;-78
2022/03/01 02:56:18;;;;;;;19.57;9.50;;;3.70;69.00;;;;;;5056282;28;20033;-78
2022/03/01 02:58:43;;;;;;;19.07;9.20;;;3.70;69.10;;;;;;5038241;28;20032;-78
2022/03/01 03:01:09;;;;;;;19.77;9.87;;;3.60;69.10;;;;;;5054987;28;20029;-78
2022/03/01 03:03:35;;;;;;;20.03;9.10;;;3.60;69.30;;;;;;5038265;28;20119;-78
2022/03/01 03:06:01;;;;;;;18.43;9.57;;;3.70;69.50;;;;;;5021920;28;20058;-78
2022/03/01 03:08:27;;;;;;;17.80;9.47;;;3.60;69.50;;;;;;5054979;28;20470;-77
2022/03/01 03:10:53;;;;;;;18.10;9.70;;;3.60;69.70;;;;;;5055081;28;20021;-77
2022/03/01 03:13:20;;;;;;;22.10;9.87;;;3.80;69.90;;;;;;5054745;28;20032;-77
2022/03/01 03:15:46;;;;;;;19.77;9.80;;;3.60;70.00;;;;;;5055918;28;20029;-77
2022/03/01 03:18:12;;;;;;;18.43;10.43;;;3.80;70.00;;;;;;5054490;28;20385;-77
2022/03/01 03:20:38;;;;;;;18.67;8.97;;;3.70;70.00;;;;;;5037973;28;20025;-78
2022/03/01 03:23:05;;;;;;;18.33;9.60;;;3.70;70.10;;;;;;5054941;28;20036;-77
2022/03/01 03:25:32;;;;;;;18.53;9.77;;;3.70;70.80;;;;;;5055746;28;20382;-76
2022/03/01 03:27:58;;;;;;;20.10;9.70;;;3.70;70.10;;;;;;5054422;28;20497;-76
2022/03/01 03:30:24;;;;;;;21.27;9.53;;;3.70;70.20;;;;;;5037964;28;20029;-77
2022/03/01 03:32:50;;;;;;;20.20;10.17;;;3.70;70.40;;;;;;5055681;28;20114;-77
2022/03/01 03:35:16;;;;;;;20.33;9.53;;;3.70;70.50;;;;;;5054327;28;20032;-77
2022/03/01 03:37:41;;;;;;;18.20;9.30;;;3.70;70.60;;;;;;5054413;28;20040;-77
2022/03/01 03:40:08;;;;;;;17.30;9.13;;;3.70;70.60;;;;;;5037584;28;20053;-78
2022/03/01 03:42:33;;;;;;;18.53;9.40;;;3.70;70.70;;;;;;5054041;28;20032;-77
2022/03/01 03:44:59;;;;;;;21.77;10.13;;;3.70;70.80;;;;;;5037520;28;20029;-77
2022/03/01 03:47:24;;;;;;;19.47;9.13;;;3.70;70.90;;;;;;5037586;28;20374;-77
2022/03/01 03:49:50;;;;;;;18.97;9.40;;;3.70;71.60;;;;;;5053553;28;20037;-77
2022/03/01 03:52:16;;;;;;;20.10;9.53;;;3.70;71.00;;;;;;5037636;28;20068;-78
2022/03/01 03:54:42;;;;;;;17.83;9.30;;;3.70;71.00;;;;;;5037423;28;20396;-77
2022/03/01 03:57:08;;;;;;;19.03;9.70;;;3.80;71.20;;;;;;5053845;28;20078;-77
2022/03/01 03:59:38;;;;;;;19.90;9.60;;;3.60;71.30;;;;;;5053880;28;20112;-78
2022/03/01 04:02:05;;;;;;;20.73;9.57;;;3.70;71.30;;;;;;5037554;28;20025;-77
2022/03/01 04:04:31;;;;;;;21.40;10.50;;;3.60;71.30;;;;;;5053742;28;20040;-78
2022/03/01 04:06:57;;;;;;;19.10;10.00;;;3.70;71.40;;;;;;5054104;28;20021;-77
2022/03/01 04:09:23;;;;;;;18.17;9.30;;;3.70;71.60;;;;;;5020701;28;20094;-78
2022/03/01 04:11:49;;;;;;;19.73;9.60;;;3.70;71.60;;;;;;5053718;28;20032;-78
2022/03/01 04:14:17;;;;;;;19.53;9.70;;;3.70;71.60;;;;;;5037262;28;20033;-78
2022/03/01 04:16:43;;;;;;;18.50;9.77;;;3.70;71.60;;;;;;5037098;28;20231;-77
2022/03/01 04:19:10;;;;;;;17.93;8.73;;;3.70;71.60;;;;;;5053495;28;20031;-78
2022/03/01 04:21:36;;;;;;;19.53;9.13;;;3.70;71.60;;;;;;5053645;28;20031;-77
2022/03/01 04:24:02;;;;;;;18.87;9.40;;;3.70;71.50;;;;;;5036794;28;20087;-78
2022/03/01 04:26:28;;;;;;;20.07;10.30;;;3.70;71.40;;;;;;5053253;28;20454;-78
2022/03/01 04:28:54;;;;;;;17.20;8.60;;;3.70;71.50;;;;;;5054467;28;20033;-78
2022/03/01 04:31:20;;;;;;;20.90;10.43;;;3.70;71.50;;;;;;5036657;28;20037;-77
2022/03/01 04:33:47;;;;;;;17.80;9.17;;;3.70;71.50;;;;;;5036815;28;20037;-77
2022/03/01 04:36:13;;;;;;;15.70;8.50;;;3.70;71.40;;;;;;5036602;28;20241;-77
2022/03/01 04:38:39;;;;;;;20.97;10.17;;;3.70;71.30;;;;;;5053067;28;20060;-78
2022/03/01 04:41:05;;;;;;;17.63;9.47;;;3.70;71.30;;;;;;5054198;28;20041;-77
2022/03/01 04:43:31;;;;;;;18.27;9.20;;;3.70;71.20;;;;;;5054170;28;20107;-77
2022/03/01 04:45:57;;;;;;;17.20;9.77;;;3.70;71.20;;;;;;5054250;28;20109;-78
2022/03/01 04:48:23;;;;;;;17.80;9.27;;;3.70;71.20;;;;;;5052921;28;20070;-78
2022/03/01 04:50:50;;;;;;;21.40;10.17;;;3.70;71.10;;;;;;5052914;28;20170;-77
2022/03/01 04:53:16;;;;;;;21.43;10.60;;;3.70;71.20;;;;;;5036474;28;20044;-77
2022/03/01 04:55:42;;;;;;;18.03;9.60;;;3.70;71.10;;;;;;5036395;28;20116;-77
2022/03/01 04:58:08;;;;;;;17.53;8.83;;;3.70;71.10;;;;;;5052922;28;20492;-78
2022/03/01 05:00:35;;;;;;;19.57;9.67;;;3.80;71.20;;;;;;5035167;28;20021;-77
2022/03/01 05:03:00;;;;;;;19.27;9.83;;;3.80;71.10;;;;;;5052997;28;20032;-78
2022/03/01 05:05:26;;;;;;;16.87;9.27;;;3.80;71.10;;;;;;5052582;28;20488;-77
2022/03/01 05:07:54;;;;;;;18.30;9.40;;;3.90;71.00;;;;;;5052540;28;20075;-78
2022/03/01 05:10:19;;;;;;;19.07;9.00;;;3.80;70.90;;;;;;5052363;28;20531;-78
2022/03/01 05:13:04;;;;;;;20.53;10.53;;;3.90;71.00;;;;;;5036130;28;20037;-78
2022/03/01 05:15:30;;;;;;;24.05;9.90;;;3.90;71.00;;;;;;5052460;28;20045;-78
2022/03/01 05:17:58;;;;;;;18.47;9.70;;;3.90;71.10;;;;;;5035727;28;20067;-77
2022/03/01 05:20:25;;;;;;;21.53;9.57;;;3.90;71.10;;;;;;5052318;28;20024;-78
2022/03/01 05:22:52;;;;;;;18.33;9.47;;;3.90;71.00;;;;;;5052332;28;20021;-78
2022/03/01 05:25:20;;;;;;;17.50;9.20;;;3.90;71.00;;;;;;5053612;28;20028;-78
2022/03/01 05:27:48;;;;;;;19.83;8.73;;;3.90;71.00;;;;;;5052354;28;20075;-78
2022/03/01 05:30:15;;;;;;;18.80;9.30;;;3.90;70.90;;;;;;5035890;28;20039;-77
2022/03/01 05:32:46;;;;;;;19.03;9.93;;;4.00;71.00;;;;;;5052182;28;20024;-78
2022/03/01 05:35:16;;;;;;;18.83;9.80;;;3.90;70.80;;;;;;5053470;28;20055;-76
2022/03/01 05:37:43;;;;;;;17.93;9.87;;;4.10;70.80;;;;;;5052025;28;20503;-77
2022/03/01 05:40:10;;;;;;;18.17;9.57;;;4.00;70.70;;;;;;5035211;28;20552;-77
2022/03/01 05:42:36;;;;;;;21.07;9.63;;;3.90;70.70;;;;;;5035573;28;20064;-77
2022/03/01 05:45:03;;;;;;;21.53;10.20;;;3.90;70.60;;;;;;5053250;28;20124;-77
2022/03/01 05:47:29;;;;;;;22.07;10.20;;;3.90;70.60;;;;;;5051950;28;20074;-78
2022/03/01 05:49:55;;;;;;;19.77;9.77;;;3.90;70.60;;;;;;5053046;28;20111;-78
2022/03/01 05:52:21;;;;;;;21.70;10.07;;;3.90;70.70;;;;;;5035352;28;20116;-76
2022/03/01 05:54:46;;;;;;;19.57;10.13;;;3.90;70.70;;;;;;5053435;28;20491;-77
2022/03/01 05:57:12;;;;;;;24.23;9.87;;;3.80;70.60;;;;;;5035217;28;20033;-77
2022/03/01 05:59:38;;;;;;;19.37;9.83;;;3.90;70.80;;;;;;5051743;28;20025;-78
2022/03/01 06:02:03;;;;;;;18.93;10.27;;;3.80;70.70;;;;;;5035306;28;20132;-78
2022/03/01 06:04:30;;;;;;;20.27;9.97;;;3.90;70.80;;;;;;5018780;28;20572;-77
2022/03/01 06:06:55;;;;;;;22.43;10.10;;;3.90;70.70;;;;;;5051758;28;20024;-76
2022/03/01 06:09:21;;;;;;;19.97;11.37;;;3.90;70.60;;;;;;5051696;28;20111;-78
2022/03/01 06:11:46;;;;;;;19.93;10.03;;;3.90;70.60;;;;;;5036650;28;20079;-77
2022/03/01 06:14:12;;;;;;;22.33;10.70;;;3.90;70.60;;;;;;5055911;28;20021;-76
2022/03/01 06:16:38;;;;;;;19.33;9.87;;;3.90;70.60;;;;;;5019219;28;20064;-76
2022/03/01 06:19:03;;;;;;;22.00;10.57;;;3.90;70.60;;;;;;5052260;28;20116;-77
2022/03/01 06:21:30;;;;;;;21.20;10.43;;;4.10;70.60;;;;;;5040407;28;20377;-77
2022/03/01 06:23:56;;;;;;;20.27;11.10;;;4.00;70.50;;;;;;5041434;28;20029;-78
2022/03/01 06:26:22;;;;;;;21.40;11.03;;;4.00;70.40;;;;;;5021983;28;20029;-77
2022/03/01 06:28:50;;;;;;;22.47;10.10;;;4.00;71.00;;;;;;5031731;28;20033;-78
2022/03/01 06:31:15;;;;;;;19.47;9.57;;;3.90;70.30;;;;;;5041128;28;20048;-77
2022/03/01 06:33:42;;;;;;;19.93;9.80;;;4.00;70.40;;;;;;5035541;28;20478;-77
2022/03/01 06:36:08;;;;;;;20.97;10.60;;;4.00;70.40;;;;;;5035523;28;20021;-78
2022/03/01 06:38:33;;;;;;;20.67;10.63;;;4.00;70.30;;;;;;5013182;28;20036;-78
2022/03/01 06:40:59;;;;;;;20.23;9.80;;;4.00;70.20;;;;;;5038452;28;20084;-78
2022/03/01 06:43:26;;;;;;;19.47;9.90;;;4.10;70.30;;;;;;5056321;28;20029;-77
2022/03/01 06:45:51;;;;;;;21.00;10.83;;;4.00;70.80;;;;;;5055217;28;20029;-77
2022/03/01 06:48:17;;;;;;;18.37;9.73;;;4.00;70.10;;;;;;5038504;28;20031;-77
2022/03/01 06:50:43;;;;;;;20.43;10.20;;;4.00;70.10;;;;;;5055375;28;20033;-77
2022/03/01 06:53:09;;;;;;;20.10;10.37;;;4.00;70.10;;;;;;5038389;28;20424;-77
2022/03/01 06:55:34;;;;;;;18.80;9.73;;;3.90;70.00;;;;;;5038442;28;20124;-79
2022/03/01 06:58:00;;;;;;;21.20;10.13;;;4.00;70.10;;;;;;5047980;28;20053;-78
2022/03/01 07:00:26;;;;;;;19.03;10.40;;;4.00;70.20;;;;;;5043925;28;20051;-77
2022/03/01 07:02:51;;;;;;;19.07;10.87;;;4.00;70.20;;;;;;5020468;28;20466;-77
2022/03/01 07:05:17;;;;;;;17.53;10.13;;;4.00;70.20;;;;;;5054679;28;20049;-77
2022/03/01 07:07:44;;;;;;;19.80;10.10;;;4.10;70.90;;;;;;5054544;28;20544;-76
2022/03/01 07:10:11;;;;;;;20.63;9.97;;;4.10;70.20;;;;;;5056005;28;20025;-77
2022/03/01 07:12:38;;;;;;;20.03;9.47;;;4.20;70.20;;;;;;5021756;28;20501;-76
2022/03/01 07:15:05;;;;;;;20.40;11.23;;;4.20;70.20;;;;;;5054484;28;20124;-76
2022/03/01 07:17:31;;;;;;;21.37;10.50;;;4.30;70.30;;;;;;5055583;28;20599;-77
2022/03/01 07:19:56;;;;;;;21.33;10.27;;;4.40;70.30;;;;;;5054894;28;20104;-76
2022/03/01 07:22:22;;;;;;;22.87;10.00;;;4.40;70.20;;;;;;5055813;28;20397;-81
2022/03/01 07:24:48;;;;;;;21.60;11.40;;;4.40;70.20;;;;;;5053480;28;20056;-80
2022/03/01 07:27:14;;;;;;;21.17;11.03;;;4.50;70.80;;;;;;5038047;28;20021;-80
2022/03/01 07:29:40;;;;;;;16.30;9.80;;;4.50;70.10;;;;;;5054531;28;20495;-80
2022/03/01 07:32:07;;;;;;;21.40;11.07;;;4.60;70.10;;;;;;5021294;28;20123;-80
2022/03/01 07:34:33;;;;;;;20.23;10.37;;;4.60;70.00;;;;;;5054324;28;20017;-80
2022/03/01 07:36:59;;;;;;;20.47;10.70;;;4.70;70.00;;;;;;5054300;28;20465;-80
2022/03/01 07:39:24;;;;;;;20.30;9.47;;;4.70;69.90;;;;;;5055396;28;20100;-79
2022/03/01 07:41:51;;;;;;;18.30;10.87;;;4.90;69.90;;;;;;5055423;28;20095;-81
2022/03/01 07:44:17;;;;;;;19.27;10.83;;;4.90;69.80;;;;;;5054069;28;20060;-80
2022/03/01 07:46:43;;;;;;;17.10;10.07;;;5.00;69.80;;;;;;5054137;28;20036;-80
2022/03/01 07:49:09;;;;;;;18.23;10.30;;;5.10;69.70;;;;;;5055322;28;20470;-80
2022/03/01 07:51:35;;;;;;;19.07;9.63;;;5.30;69.70;;;;;;5053968;28;20028;-79
2022/03/01 07:54:01;;;;;;;18.57;10.43;;;5.20;69.60;;;;;;5054008;28;20033;-80
2022/03/01 07:56:26;;;;;;;20.37;10.93;;;5.20;69.50;;;;;;5055248;28;20520;-80
2022/03/01 07:58:53;;;;;;;21.97;11.07;;;5.30;69.40;;;;;;5053904;28;20135;-80
2022/03/01 08:01:19;;;;;;;18.53;10.47;;;5.40;69.40;;;;;;5055039;28;20063;-80
2022/03/01 08:03:46;;;;;;;19.30;11.20;;;5.50;69.40;;;;;;5037092;28;20017;-80
2022/03/01 08:06:11;;;;;;;19.70;10.27;;;5.40;69.20;;;;;;5053886;28;20158;-80
2022/03/01 08:08:38;;;;;;;19.70;10.70;;;5.50;69.10;;;;;;5020466;28;20059;-80
2022/03/01 08:11:06;;;;;;;22.27;10.70;;;5.50;69.30;;;;;;5037143;28;20037;-80
2022/03/01 08:13:34;;;;;;;20.53;10.53;;;5.60;68.90;;;;;;5037390;28;20492;-78
2022/03/01 08:16:00;;;;;;;17.73;10.17;;;5.60;68.70;;;;;;5053365;28;20025;-80
2022/03/01 08:18:26;;;;;;;19.67;10.00;;;5.70;68.60;;;;;;5053644;28;20049;-80
2022/03/01 08:20:52;;;;;;;20.00;10.73;;;5.70;69.00;;;;;;5036905;28;20481;-80
2022/03/01 08:23:18;;;;;;;22.23;10.70;;;5.70;68.20;;;;;;5053414;28;20389;-80
2022/03/01 08:25:44;;;;;;;23.20;10.67;;;5.70;68.20;;;;;;5053540;28;20104;-78
2022/03/01 08:28:10;;;;;;;20.57;10.17;;;5.80;68.40;;;;;;5054412;28;20116;-80
2022/03/01 08:30:36;;;;;;;19.80;10.57;;;5.90;68.30;;;;;;5054536;28;20107;-80
2022/03/01 08:33:03;;;;;;;19.27;10.33;;;5.90;68.20;;;;;;5036621;28;20029;-80
2022/03/01 08:35:30;;;;;;;25.83;10.10;;;6.10;68.90;;;;;;5036727;28;20033;-78
2022/03/01 08:38:00;;;;;;;19.57;10.63;;;6.10;68.10;;;;;;5036534;28;20436;-78
2022/03/01 08:40:25;;;;;;;19.53;10.20;;;6.20;67.90;;;;;;5036966;28;20403;-78
2022/03/01 08:42:52;;;;;;;20.57;10.70;;;6.40;67.80;;;;;;5053013;28;20063;-80
2022/03/01 08:45:18;;;;;;;19.37;9.97;;;6.50;67.50;;;;;;5036416;28;20033;-80
2022/03/01 08:47:44;;;;;;;17.27;10.10;;;6.50;67.20;;;;;;5052976;28;20028;-80
2022/03/01 08:50:10;;;;;;;18.70;9.90;;;6.50;67.00;;;;;;5036737;28;20025;-80
2022/03/01 08:52:36;;;;;;;18.47;9.63;;;6.60;66.90;;;;;;5054059;28;20028;-78
2022/03/01 08:55:02;;;;;;;18.30;10.13;;;6.70;66.60;;;;;;5052783;28;20032;-78
2022/03/01 08:57:28;;;;;;;19.10;10.53;;;6.80;66.70;;;;;;5052631;28;20392;-78
2022/03/01 08:59:53;;;;;;;16.73;9.70;;;6.80;66.50;;;;;;5036106;28;20025;-79
2022/03/01 09:02:20;;;;;;;17.10;10.10;;;6.90;66.50;;;;;;5052840;28;20053;-80
2022/03/01 09:04:45;;;;;;;15.97;8.93;;;6.90;66.30;;;;;;5019798;28;20389;-78
2022/03/01 09:07:11;;;;;;;16.00;9.33;;;7.00;66.10;;;;;;5035924;28;20025;-78
2022/03/01 09:09:37;;;;;;;16.50;9.57;;;7.10;66.10;;;;;;5052489;28;20033;-78
2022/03/01 09:12:03;;;;;;;16.87;9.60;;;7.10;66.00;;;;;;5052416;28;20086;-78
2022/03/01 09:14:28;;;;;;;16.10;9.03;;;7.20;66.10;;;;;;5052338;28;20067;-78
2022/03/01 09:16:54;;;;;;;16.30;9.00;;;7.30;65.90;;;;;;5052284;28;20029;-78
2022/03/01 09:19:20;;;;;;;15.40;9.70;;;7.40;65.70;;;;;;5052409;28;20016;-79
2022/03/01 09:21:45;;;;;;;17.50;9.00;;;7.60;65.40;;;;;;5035901;28;20034;-79
2022/03/01 09:24:11;;;;;;;18.67;9.47;;;7.60;65.40;;;;;;5035686;28;20032;-78
2022/03/01 09:26:37;;;;;;;15.30;9.47;;;7.60;65.30;;;;;;5035536;28;20029;-78
2022/03/01 09:29:03;;;;;;;16.70;9.30;;;7.70;65.20;;;;;;5052154;28;20056;-78
2022/03/01 09:31:29;;;;;;;18.97;9.80;;;7.70;64.80;;;;;;5052168;28;20043;-79
2022/03/01 09:33:54;;;;;;;16.73;9.70;;;7.80;64.50;;;;;;5035627;28;20426;-77
2022/03/01 09:36:20;;;;;;;18.67;10.30;;;7.80;64.30;;;;;;5053293;28;20116;-77
2022/03/01 09:38:46;;;;;;;18.57;10.33;;;7.90;64.40;;;;;;5052015;28;20053;-77
2022/03/01 09:41:13;;;;;;;17.00;10.03;;;7.90;63.90;;;;;;5035285;28;20433;-77
2022/03/01 09:43:39;;;;;;;19.97;10.03;;;8.00;63.70;;;;;;5053369;28;20385;-77
2022/03/01 09:46:07;;;;;;;16.07;9.27;;;8.00;63.60;;;;;;5051458;28;20077;-77
2022/03/01 09:48:33;;;;;;;14.90;9.60;;;8.10;63.30;;;;;;5052131;28;20032;-77
2022/03/01 09:51:04;;;;;;;16.97;9.37;;;8.10;63.10;;;;;;5035525;28;20032;-77
2022/03/01 09:53:30;;;;;;;13.73;8.83;;;8.10;63.10;;;;;;5051990;28;20108;-77
2022/03/01 09:55:56;;;;;;;20.47;10.37;;;8.20;62.80;;;;;;5051950;28;20078;-77
2022/03/01 09:58:22;;;;;;;16.13;9.57;;;8.30;62.80;;;;;;5051436;28;20489;-77
2022/03/01 10:00:48;;;;;;;15.13;8.63;;;8.40;62.80;;;;;;5052922;28;20025;-77
2022/03/01 10:03:16;;;;;;;16.93;9.43;;;8.60;63.00;;;;;;5052860;28;20018;-77
2022/03/01 10:05:43;;;;;;;15.03;9.17;;;8.70;62.90;;;;;;5053013;28;20032;-77
2022/03/01 10:08:22;;;;;;;17.63;9.87;;;8.90;62.60;;;;;;5052919;28;20031;-77
2022/03/01 10:10:53;;;;;;;16.63;9.20;;;9.00;62.30;;;;;;5051629;28;20032;-77
2022/03/01 10:13:30;;;;;;;12.83;8.40;;;9.50;62.40;;;;;;5051779;28;20366;-77
2022/03/01 10:16:06;;;;;;;16.30;9.10;;;9.80;62.10;;;;;;5051757;28;20017;-77
2022/03/01 10:18:36;;;;;;;14.30;7.95;;;10.30;62.10;;;;;;5051490;28;20021;-77
2022/03/01 10:21:06;;;;;;;14.70;8.75;;;10.80;62.30;;;;;;5052889;28;20021;-77
2022/03/01 10:23:33;;;;;;;14.10;8.27;;;11.20;61.90;;;;;;5051560;28;20440;-78
2022/03/01 10:26:11;;;;;;;15.05;8.13;;;11.70;62.20;;;;;;5052841;28;20052;-78
2022/03/01 10:28:39;;;;;;;15.65;8.70;;;12.00;60.30;;;;;;5052828;28;20029;-78
2022/03/01 10:31:16;;;;;;;14.45;8.52;;;12.10;60.00;;;;;;5051494;28;20025;-77
2022/03/01 10:34:04;;;;;;;14.75;8.93;;;12.20;59.00;;;;;;5052666;28;20058;-77
2022/03/01 10:36:34;;;;;;;13.38;8.55;;;12.30;58.10;;;;;;5051399;28;20107;-77
2022/03/01 10:39:16;;;;;;;13.07;8.55;;;12.20;57.50;;;;;;5051349;28;20025;-77
2022/03/01 10:41:43;;;;;;;14.88;9.10;;;12.30;56.50;;;;;;5051218;28;20064;-77
2022/03/01 10:44:25;;;;;;;15.23;9.35;;;12.20;56.50;;;;;;5051638;28;20017;-77
2022/03/01 10:46:53;;;;;;;13.82;8.10;;;12.20;55.90;;;;;;5051180;28;20064;-78
2022/03/01 10:49:37;;;;;;;11.73;7.97;;;12.30;55.90;;;;;;5052574;28;20135;-77
2022/03/01 10:52:08;;;;;;;13.93;8.55;;;12.40;55.50;;;;;;5051590;28;20029;-77
2022/03/01 10:54:42;;;;;;;15.13;8.85;;;12.50;55.50;;;;;;5052409;28;20079;-78
2022/03/01 10:57:20;;;;;;;14.25;8.98;;;12.70;55.40;;;;;;5052321;28;20394;-77
2022/03/01 10:59:47;;;;;;;12.77;8.30;;;12.80;55.20;;;;;;5056255;28;20090;-78
2022/03/01 11:02:16;;;;;;;17.10;9.20;;;12.90;54.90;;;;;;5038435;28;20097;-77
2022/03/01 11:04:42;;;;;;;14.10;9.35;;;13.00;54.50;;;;;;5039034;28;20021;-77
2022/03/01 11:07:10;;;;;;;14.20;8.70;;;13.10;53.90;;;;;;5056591;28;20184;-77
2022/03/01 11:09:36;;;;;;;14.35;9.05;;;13.20;53.90;;;;;;5056034;28;20021;-78
2022/03/01 11:12:03;;;;;;;13.57;8.90;;;13.20;53.70;;;;;;5055112;28;20091;-77
2022/03/01 11:15:04;;;;;;;14.85;10.25;;;13.40;53.70;;;;;;5054716;28;20021;-77
2022/03/01 11:17:38;;;;;;;14.80;7.90;;;13.50;53.50;;;;;;5037965;28;20127;-79
2022/03/01 11:20:40;;;;;;;16.30;8.80;;;13.70;53.80;;;;;;5051208;28;20480;-78
2022/03/01 11:23:08;;;;;;;14.90;8.30;;;13.80;53.30;;;;;;5048812;28;20024;-78
2022/03/01 11:25:42;;;;;;;13.07;8.43;;;14.00;53.20;;;;;;5052802;28;20432;-79
2022/03/01 11:28:11;;;;;;;12.43;8.55;;;14.20;52.80;;;;;;5037210;28;20032;-79
2022/03/01 11:30:40;;;;;;;16.58;8.98;;;14.30;52.40;;;;;;5055200;28;20029;-77
2022/03/01 11:33:06;;;;;;;19.50;8.68;;;14.40;51.90;;;;;;5055177;28;20043;-77
2022/03/01 11:35:38;;;;;;;12.98;8.45;;;14.40;51.60;;;;;;5053952;28;20024;-77
2022/03/01 11:38:12;;;;;;;13.70;8.73;;;14.40;51.10;;;;;;5052998;28;20066;-77
2022/03/01 11:40:41;;;;;;;16.45;9.75;;;14.30;50.80;;;;;;5053593;28;20123;-76
2022/03/01 11:43:12;;;;;;;14.73;9.15;;;14.30;50.20;;;;;;5053662;28;20477;-76
2022/03/01 11:45:39;;;;;;;14.07;8.80;;;14.20;50.10;;;;;;5053745;28;20017;-79
2022/03/01 11:48:12;;;;;;;15.23;9.30;;;14.10;50.00;;;;;;5053411;28;20121;-79
2022/03/01 11:50:44;;;;;;;15.73;9.35;;;14.00;50.00;;;;;;5054814;28;20036;-79
2022/03/01 11:53:12;;;;;;;14.52;8.60;;;13.90;50.10;;;;;;5053286;28;20041;-79
2022/03/01 11:55:46;;;;;;;17.60;9.25;;;13.80;49.90;;;;;;5053611;28;20048;-79
2022/03/01 11:58:12;;;;;;;13.82;9.02;;;13.80;49.80;;;;;;5053227;28;20032;-79
2022/03/01 12:00:39;;;;;;;14.45;9.30;;;13.80;50.40;;;;;;5053144;28;20047;-79
2022/03/01 12:03:13;;;;;;;13.70;9.13;;;13.90;49.30;;;;;;5053222;28;20024;-79
2022/03/01 12:05:39;;;;;;;;;;;13.90;49.30;;;;;;5047376;28;20127;-79
2022/03/01 12:08:08;;;;;;;15.32;9.00;;;13.80;49.40;;;;;;5045334;28;20352;-79
2022/03/01 12:10:34;;;;;;;12.95;8.73;;;13.80;49.50;;;;;;5052167;28;20025;-79
2022/03/01 12:13:07;;;;;;;14.85;8.93;;;13.80;49.70;;;;;;5036445;28;20032;-79
2022/03/01 12:15:35;;;;;;;15.60;9.40;;;13.90;49.60;;;;;;5054367;28;20029;-79
2022/03/01 12:18:16;;;;;;;15.55;9.82;;;14.00;49.40;;;;;;5046808;28;20493;-79
2022/03/01 12:20:46;;;;;;;16.73;9.77;;;14.10;49.60;;;;;;5054487;28;20377;-79
2022/03/01 12:23:27;;;;;;;16.70;10.27;;;14.30;49.60;;;;;;5036802;28;20116;-79
2022/03/01 12:25:53;;;;;;;15.00;9.38;;;14.50;49.30;;;;;;5053038;28;20024;-79
2022/03/01 12:28:21;;;;;;;15.15;8.88;;;14.70;49.10;;;;;;5036580;28;20025;-79
2022/03/01 12:30:47;;;;;;;14.80;8.98;;;14.80;48.60;;;;;;5052781;28;20497;-79
2022/03/01 12:33:15;;;;;;;15.45;9.65;;;14.80;48.40;;;;;;5035969;28;20485;-79
2022/03/01 12:35:41;;;;;;;16.50;9.50;;;14.80;48.10;;;;;;5052919;28;20392;-79
2022/03/01 12:38:13;;;;;;;15.57;10.32;;;14.70;48.30;;;;;;5036368;28;20115;-78
2022/03/01 12:40:42;;;;;;;15.40;9.25;;;14.70;48.10;;;;;;5052774;28;20037;-79
2022/03/01 12:43:11;;;;;;;15.52;9.48;;;14.70;47.90;;;;;;5052551;28;20485;-79